Time;durP1;ratioP1;P1;durP2;ratioP2;P2;SDS_P1;SDS_P2;PMS_P1;PMS_P2;Temp;Humidity;BMP_temperature;BMP_pressure;BME280_temperature;BME280_humidity;BME280_pressure;Samples;Min_cycle;Max_cycle;Signal;HPM_P1;HPM_P2
2024/01/01 00:01:47;;;;;;;121.35;74.68;;;6.20;67.20;;;;;;5008011;28;114879;-81
2024/01/01 00:04:15;;;;;;;128.52;77.45;;;6.20;67.10;;;;;;5005596;28;115076;-81
2024/01/01 00:06:42;;;;;;;123.13;78.07;;;6.20;67.20;;;;;;5005752;28;114685;-83
2024/01/01 00:09:09;;;;;;;130.45;85.43;;;6.20;67.30;;;;;;5009372;28;114439;-84
2024/01/01 00:11:37;;;;;;;127.38;79.97;;;6.20;67.20;;;;;;5010188;28;114341;-81
2024/01/01 00:14:04;;;;;;;115.45;72.38;;;6.20;67.20;;;;;;5005992;28;118616;-82
2024/01/01 00:16:33;;;;;;;99.00;63.42;;;6.20;67.10;;;;;;5007948;28;114881;-82
2024/01/01 00:19:01;;;;;;;106.38;64.07;;;6.20;66.90;;;;;;5007735;28;114253;-81
2024/01/01 00:21:28;;;;;;;98.18;63.88;;;6.20;66.90;;;;;;5007704;28;114382;-80
2024/01/01 00:23:56;;;;;;;105.65;65.75;;;6.20;66.80;;;;;;5006651;28;115082;-82
2024/01/01 00:26:24;;;;;;;97.90;61.63;;;6.10;66.80;;;;;;5005147;28;114751;-81
2024/01/01 00:28:59;;;;;;;82.10;54.50;;;6.10;66.90;;;;;;5006562;28;114590;-82
2024/01/01 00:31:26;;;;;;;85.20;53.95;;;6.10;67.10;;;;;;4988980;28;114611;-81
2024/01/01 00:33:54;;;;;;;103.60;64.43;;;6.00;67.30;;;;;;4988873;28;115192;-80
2024/01/01 00:36:21;;;;;;;103.13;61.88;;;6.10;67.20;;;;;;5006671;28;114690;-81
2024/01/01 00:38:51;;;;;;;108.57;66.38;;;6.00;67.30;;;;;;4989755;28;114474;-80
2024/01/01 00:41:18;;;;;;;108.47;66.43;;;6.10;67.30;;;;;;4990040;28;114452;-81
2024/01/01 00:43:45;;;;;;;99.00;63.40;;;6.00;67.20;;;;;;5006565;28;115017;-81
2024/01/01 00:46:13;;;;;;;97.70;58.60;;;6.10;67.10;;;;;;5005788;28;116102;-81
2024/01/01 00:48:40;;;;;;;74.60;50.17;;;5.90;67.30;;;;;;5007255;28;114481;-80
2024/01/01 00:51:08;;;;;;;86.53;54.67;;;5.90;67.40;;;;;;5007609;28;114313;-81
2024/01/01 00:53:35;;;;;;;73.85;49.20;;;5.70;67.50;;;;;;5007045;28;115757;-82
2024/01/01 00:56:03;;;;;;;84.78;52.38;;;5.80;67.80;;;;;;5005471;28;114842;-82
2024/01/01 00:58:31;;;;;;;74.32;47.03;;;5.80;67.90;;;;;;5007779;28;114455;-81
2024/01/01 01:00:58;;;;;;;75.07;47.33;;;5.80;68.00;;;;;;5007454;28;114574;-82
2024/01/01 01:03:25;;;;;;;78.32;46.95;;;5.90;68.10;;;;;;5004909;28;115120;-81
2024/01/01 01:05:56;;;;;;;69.15;45.53;;;6.00;68.00;;;;;;4988139;28;115209;-81
2024/01/01 01:08:31;;;;;;;85.53;54.33;;;6.00;68.10;;;;;;5005687;28;114686;-82
2024/01/01 01:10:59;;;;;;;89.40;57.90;;;6.00;67.70;;;;;;4988540;28;114483;-82
2024/01/01 01:13:26;;;;;;;72.78;46.63;;;6.00;67.60;;;;;;5005533;28;115705;-82
2024/01/01 01:15:53;;;;;;;85.50;51.95;;;6.00;67.80;;;;;;5004532;28;115855;-82
2024/01/01 01:18:20;;;;;;;108.55;65.88;;;6.00;67.70;;;;;;5006739;28;114565;-82
2024/01/01 01:20:48;;;;;;;119.20;73.78;;;5.90;67.50;;;;;;5004875;28;114965;-82
2024/01/01 01:23:15;;;;;;;126.07;75.20;;;5.90;67.30;;;;;;5005685;28;115130;-81
2024/01/01 01:25:44;;;;;;;133.88;79.10;;;5.80;67.20;;;;;;4987209;28;117868;-81
2024/01/01 01:28:11;;;;;;;119.72;68.00;;;5.70;67.10;;;;;;5005200;28;114613;-80
2024/01/01 01:30:38;;;;;;;115.80;70.38;;;5.60;67.40;;;;;;4972595;28;114376;-81
2024/01/01 01:33:06;;;;;;;108.88;65.00;;;5.60;67.70;;;;;;5004912;28;117144;-81
2024/01/01 01:35:38;;;;;;;98.40;58.88;;;5.60;68.00;;;;;;5004250;28;116001;-81
2024/01/01 01:38:05;;;;;;;107.72;62.70;;;5.60;68.40;;;;;;5017295;28;114756;-82
2024/01/01 01:40:33;;;;;;;103.53;59.67;;;5.60;68.30;;;;;;5007315;28;114242;-81
2024/01/01 01:43:00;;;;;;;97.03;53.15;;;5.60;68.50;;;;;;4990101;28;118188;-81
2024/01/01 01:45:28;;;;;;;96.85;55.17;;;5.60;68.70;;;;;;5009738;28;114746;-81
2024/01/01 01:47:58;;;;;;;85.90;50.75;;;5.70;68.70;;;;;;5010295;28;114685;-81
2024/01/01 01:50:28;;;;;;;92.18;52.30;;;5.70;68.80;;;;;;5009105;28;115154;-81
2024/01/01 01:52:55;;;;;;;80.68;48.45;;;5.70;68.80;;;;;;5008170;28;115081;-81
2024/01/01 01:55:28;;;;;;;87.93;51.00;;;5.80;68.90;;;;;;4978175;28;116200;-81
2024/01/01 01:57:55;;;;;;;84.05;50.97;;;5.90;68.90;;;;;;5016377;28;114416;-82
2024/01/01 02:00:22;;;;;;;84.63;48.65;;;5.90;69.00;;;;;;4992790;28;114859;-81
2024/01/01 02:02:49;;;;;;;84.35;49.10;;;5.90;68.90;;;;;;5007693;28;115032;-81
2024/01/01 02:05:17;;;;;;;83.15;48.30;;;6.00;68.90;;;;;;4975453;28;114606;-80
2024/01/01 02:07:45;;;;;;;74.18;45.30;;;6.00;68.80;;;;;;4975751;28;114772;-81
2024/01/01 02:10:12;;;;;;;83.88;49.28;;;6.00;68.90;;;;;;4992132;28;114819;-81
2024/01/01 02:12:42;;;;;;;77.13;45.45;;;6.00;68.90;;;;;;5007363;28;115209;-81
2024/01/01 02:15:09;;;;;;;71.55;43.58;;;6.10;69.00;;;;;;5007439;28;115715;-82
2024/01/01 02:17:36;;;;;;;65.60;41.40;;;6.10;69.10;;;;;;5008879;28;114440;-82
2024/01/01 02:20:05;;;;;;;64.43;40.85;;;6.10;69.20;;;;;;5009068;28;114725;-82
2024/01/01 02:22:45;;;;;;;57.53;35.90;;;6.10;69.30;;;;;;5009079;28;115091;-82
2024/01/01 02:25:12;;;;;;;52.83;33.08;;;6.20;69.40;;;;;;5008847;28;115202;-82
2024/01/01 02:27:40;;;;;;;49.22;31.50;;;6.20;69.60;;;;;;5008672;28;114500;-82
2024/01/01 02:30:10;;;;;;;50.65;32.47;;;6.20;69.80;;;;;;5008324;28;114236;-82
2024/01/01 02:32:38;;;;;;;53.80;33.05;;;6.20;69.90;;;;;;5007527;28;115118;-82
2024/01/01 02:35:08;;;;;;;50.80;31.80;;;6.30;69.90;;;;;;5007407;28;114679;-82
2024/01/01 02:37:36;;;;;;;45.22;29.25;;;6.30;70.00;;;;;;5009854;28;114536;-82
2024/01/01 02:40:05;;;;;;;46.70;29.30;;;6.40;70.00;;;;;;5008261;28;114522;-82
2024/01/01 02:42:33;;;;;;;45.88;29.60;;;6.40;70.00;;;;;;5008670;28;115127;-81
2024/01/01 02:45:00;;;;;;;42.72;26.25;;;6.40;70.10;;;;;;5004341;28;115127;-81
2024/01/01 02:47:28;;;;;;;46.85;29.40;;;6.50;70.10;;;;;;4988455;28;114504;-81
2024/01/01 02:49:58;;;;;;;42.03;27.38;;;6.60;70.00;;;;;;4988294;28;114481;-81
2024/01/01 02:52:25;;;;;;;45.33;29.23;;;6.70;69.90;;;;;;4988540;28;115091;-82
2024/01/01 02:54:52;;;;;;;43.03;27.83;;;6.70;69.90;;;;;;4987655;28;115057;-81
2024/01/01 02:57:20;;;;;;;39.95;27.35;;;6.70;69.80;;;;;;4955521;28;114650;-81
2024/01/01 02:59:47;;;;;;;42.53;26.67;;;6.80;69.80;;;;;;4987805;28;114569;-82
2024/01/01 03:02:16;;;;;;;40.72;26.55;;;6.80;69.80;;;;;;4986865;28;115148;-81
2024/01/01 03:04:44;;;;;;;38.50;26.63;;;6.80;69.80;;;;;;4988123;28;114817;-81
2024/01/01 03:07:11;;;;;;;40.75;27.83;;;6.80;69.80;;;;;;4989062;28;114485;-81
2024/01/01 03:09:39;;;;;;;40.47;25.48;;;6.90;69.80;;;;;;4987890;28;114301;-81
2024/01/01 03:12:06;;;;;;;39.45;26.80;;;6.90;69.80;;;;;;4986581;28;115226;-82
2024/01/01 03:14:35;;;;;;;43.92;27.85;;;6.90;69.70;;;;;;4986436;28;114557;-81
2024/01/01 03:17:03;;;;;;;43.25;28.92;;;6.90;69.60;;;;;;4987821;28;114688;-82
2024/01/01 03:19:30;;;;;;;42.78;29.52;;;6.90;69.60;;;;;;4987320;28;114705;-81
2024/01/01 03:22:00;;;;;;;44.50;28.88;;;6.90;69.60;;;;;;4987357;28;115564;-82
2024/01/01 03:24:27;;;;;;;40.33;27.95;;;6.90;69.60;;;;;;4985763;28;114747;-81
2024/01/01 03:26:54;;;;;;;44.33;29.33;;;7.00;69.60;;;;;;4992975;28;114732;-81
2024/01/01 03:29:22;;;;;;;44.33;28.92;;;7.00;69.60;;;;;;5012492;28;113533;-82
2024/01/01 03:31:49;;;;;;;45.30;27.65;;;7.00;69.60;;;;;;4987744;28;115795;-82
2024/01/01 03:34:16;;;;;;;43.47;27.88;;;7.00;69.60;;;;;;4986499;28;114692;-82
2024/01/01 03:36:44;;;;;;;44.45;29.40;;;7.10;69.60;;;;;;4989168;28;114635;-82
2024/01/01 03:39:11;;;;;;;41.42;28.65;;;7.10;69.60;;;;;;4988839;28;114455;-81
2024/01/01 03:41:39;;;;;;;43.97;28.95;;;7.10;69.60;;;;;;4995780;28;115080;-81
2024/01/01 03:44:10;;;;;;;40.95;28.58;;;7.10;69.60;;;;;;4991106;28;114793;-82
2024/01/01 03:46:37;;;;;;;44.15;29.38;;;7.10;69.60;;;;;;4955713;28;114592;-82
2024/01/01 03:49:05;;;;;;;45.25;30.20;;;7.10;69.60;;;;;;4988792;28;114445;-81
2024/01/01 03:51:32;;;;;;;47.10;31.33;;;7.10;69.60;;;;;;4987789;28;115153;-81
2024/01/01 03:54:01;;;;;;;48.83;32.08;;;7.10;69.60;;;;;;4987504;28;116092;-81
2024/01/01 03:56:29;;;;;;;57.67;35.53;;;7.10;69.60;;;;;;4970664;28;114566;-81
2024/01/01 03:58:57;;;;;;;55.67;33.08;;;7.10;69.60;;;;;;4988820;28;114269;-81
2024/01/01 04:01:26;;;;;;;48.83;33.25;;;7.10;69.60;;;;;;4968941;28;115537;-81
2024/01/01 04:03:58;;;;;;;48.88;33.00;;;7.00;69.50;;;;;;4987029;28;114646;-81
2024/01/01 04:06:26;;;;;;;49.33;32.13;;;7.10;69.60;;;;;;4985724;28;114717;-82
2024/01/01 04:08:53;;;;;;;49.10;32.08;;;7.00;69.60;;;;;;4986743;28;114795;-82
2024/01/01 04:11:20;;;;;;;46.17;31.23;;;7.00;69.80;;;;;;4985889;28;115655;-81
2024/01/01 04:13:47;;;;;;;55.17;32.35;;;7.00;69.80;;;;;;4986932;28;116101;-81
2024/01/01 04:16:15;;;;;;;50.60;32.25;;;7.00;69.80;;;;;;4987608;28;114354;-82
2024/01/01 04:18:42;;;;;;;51.22;31.60;;;7.00;69.90;;;;;;4988247;28;114325;-82
2024/01/01 04:21:10;;;;;;;51.75;33.75;;;7.10;69.90;;;;;;4985388;28;115149;-82
2024/01/01 04:23:37;;;;;;;50.15;32.70;;;7.10;69.80;;;;;;4986577;28;114684;-82
2024/01/01 04:26:04;;;;;;;48.65;31.88;;;7.10;69.90;;;;;;4986970;28;114381;-81
2024/01/01 04:28:33;;;;;;;50.55;33.40;;;7.10;69.90;;;;;;4987336;28;114688;-83
2024/01/01 04:31:04;;;;;;;49.28;31.05;;;7.10;69.80;;;;;;4984866;28;115112;-81
2024/01/01 04:33:31;;;;;;;47.20;30.60;;;7.10;69.80;;;;;;4986020;28;114572;-81
2024/01/01 04:35:59;;;;;;;48.22;31.23;;;7.10;69.80;;;;;;4987035;28;114310;-81
2024/01/01 04:38:26;;;;;;;47.10;31.27;;;7.10;69.90;;;;;;4985722;28;114540;-81
2024/01/01 04:40:53;;;;;;;47.67;32.03;;;7.10;70.00;;;;;;4984990;28;115128;-82
2024/01/01 04:43:21;;;;;;;47.80;32.03;;;7.10;70.10;;;;;;4968387;28;115222;-82
2024/01/01 04:45:48;;;;;;;48.97;33.05;;;7.10;70.10;;;;;;4987209;28;114440;-82
2024/01/01 04:48:15;;;;;;;47.97;31.77;;;7.00;70.20;;;;;;4985638;28;114577;-82
2024/01/01 04:50:43;;;;;;;43.05;29.55;;;7.00;70.30;;;;;;4984363;28;115782;-82
2024/01/01 04:53:10;;;;;;;55.47;33.55;;;7.00;70.30;;;;;;4985901;28;115248;-82
2024/01/01 04:55:38;;;;;;;43.55;28.73;;;7.00;70.50;;;;;;4985179;28;114882;-81
2024/01/01 04:58:06;;;;;;;46.00;31.15;;;7.00;70.50;;;;;;4969455;28;114337;-81
2024/01/01 05:00:34;;;;;;;47.42;30.17;;;7.00;70.50;;;;;;4984574;28;115284;-82
2024/01/01 05:03:02;;;;;;;49.42;30.70;;;7.00;70.60;;;;;;4984186;28;116048;-82
2024/01/01 05:05:29;;;;;;;51.50;32.80;;;7.00;70.60;;;;;;4986418;28;114797;-82
2024/01/01 05:07:57;;;;;;;52.83;33.55;;;7.00;70.60;;;;;;4986529;28;114442;-82
2024/01/01 05:10:24;;;;;;;53.22;33.78;;;6.90;70.70;;;;;;4951437;28;115279;-82
2024/01/01 05:12:52;;;;;;;47.75;31.33;;;6.90;70.80;;;;;;4985542;28;115166;-82
2024/01/01 05:15:19;;;;;;;45.97;30.50;;;7.00;70.90;;;;;;4985322;28;114793;-81
2024/01/01 05:17:48;;;;;;;50.35;32.30;;;6.90;70.90;;;;;;4992773;28;114480;-82
2024/01/01 05:20:16;;;;;;;46.35;29.85;;;6.90;71.10;;;;;;5007211;28;113870;-82
2024/01/01 05:22:43;;;;;;;41.60;27.17;;;6.90;71.00;;;;;;4986025;28;115346;-82
2024/01/01 05:25:11;;;;;;;47.33;29.42;;;6.90;71.10;;;;;;4990741;28;114852;-82
2024/01/01 05:27:38;;;;;;;45.47;29.80;;;6.90;71.10;;;;;;4996332;28;114281;-81
2024/01/01 05:30:07;;;;;;;46.72;28.00;;;6.90;71.20;;;;;;4986292;28;115161;-81
2024/01/01 05:32:35;;;;;;;41.53;26.20;;;6.80;71.30;;;;;;4967928;28;114690;-82
2024/01/01 05:35:02;;;;;;;45.13;27.73;;;6.90;71.30;;;;;;4969766;28;115038;-82
2024/01/01 05:37:30;;;;;;;38.33;25.33;;;6.80;71.30;;;;;;4985071;28;114986;-81
2024/01/01 05:39:57;;;;;;;38.00;24.52;;;6.80;71.20;;;;;;4968388;28;115146;-81
2024/01/01 05:42:25;;;;;;;36.25;23.00;;;6.80;71.20;;;;;;4967964;28;114876;-81
2024/01/01 05:44:52;;;;;;;32.50;20.98;;;6.80;71.20;;;;;;4952723;28;114650;-80
2024/01/01 05:47:20;;;;;;;33.30;19.58;;;6.80;71.20;;;;;;4985135;28;114593;-81
2024/01/01 05:49:47;;;;;;;26.67;15.70;;;6.80;71.00;;;;;;4984217;28;115391;-81
2024/01/01 05:52:17;;;;;;;19.92;12.23;;;6.70;70.60;;;;;;4985077;28;114858;-81
2024/01/01 05:54:45;;;;;;;17.52;11.45;;;6.70;70.20;;;;;;4986023;28;114481;-81
2024/01/01 05:57:13;;;;;;;17.27;10.50;;;6.60;69.80;;;;;;4986058;28;114660;-81
2024/01/01 05:59:40;;;;;;;21.88;12.32;;;6.50;69.70;;;;;;4983809;28;115032;-82
2024/01/01 06:02:08;;;;;;;22.98;13.23;;;6.50;69.70;;;;;;4984588;28;115819;-81
2024/01/01 06:04:35;;;;;;;21.80;12.85;;;6.40;69.80;;;;;;4986169;28;115391;-81
2024/01/01 06:07:03;;;;;;;23.38;14.10;;;6.40;70.00;;;;;;4986122;28;114665;-81
2024/01/01 06:09:30;;;;;;;21.10;13.80;;;6.40;70.10;;;;;;4984893;28;115100;-81
2024/01/01 06:11:57;;;;;;;21.73;13.75;;;6.40;70.20;;;;;;4984989;28;114694;-82
2024/01/01 06:14:25;;;;;;;27.75;16.10;;;6.40;70.30;;;;;;4985690;28;114616;-82
2024/01/01 06:16:52;;;;;;;23.60;14.63;;;6.40;70.40;;;;;;4985925;28;114712;-81
2024/01/01 06:19:20;;;;;;;23.58;13.63;;;6.40;70.40;;;;;;4984438;28;115958;-81
2024/01/01 06:21:47;;;;;;;24.40;14.63;;;6.40;70.40;;;;;;4984779;28;114632;-80
2024/01/01 06:24:14;;;;;;;24.73;16.42;;;6.30;70.40;;;;;;4984646;28;114365;-80
2024/01/01 06:26:41;;;;;;;25.45;14.88;;;6.20;70.30;;;;;;4984350;28;114495;-80
2024/01/01 06:29:08;;;;;;;24.67;15.75;;;6.20;70.20;;;;;;4950847;28;115387;-81
2024/01/01 06:31:36;;;;;;;21.95;13.93;;;6.20;70.00;;;;;;4986885;28;114669;-81
2024/01/01 06:34:03;;;;;;;23.23;13.77;;;6.20;70.00;;;;;;4989188;28;114646;-81
2024/01/01 06:36:31;;;;;;;21.27;12.05;;;6.10;70.00;;;;;;4971537;28;114624;-82
2024/01/01 06:38:58;;;;;;;21.85;12.18;;;6.10;70.00;;;;;;4986838;28;115171;-82
2024/01/01 06:41:25;;;;;;;25.88;13.85;;;6.00;70.20;;;;;;4988151;28;114752;-82
2024/01/01 06:43:53;;;;;;;27.02;14.43;;;6.00;70.30;;;;;;4987789;28;114415;-82
2024/01/01 06:46:21;;;;;;;28.88;15.43;;;6.10;70.40;;;;;;4955461;28;114760;-82
2024/01/01 06:48:48;;;;;;;23.80;14.65;;;6.10;70.40;;;;;;4986838;28;118501;-82
2024/01/01 06:51:16;;;;;;;26.05;13.45;;;6.10;70.20;;;;;;4987934;28;114559;-82
2024/01/01 06:53:44;;;;;;;22.77;13.27;;;6.10;70.10;;;;;;4971119;28;114557;-82
2024/01/01 06:56:12;;;;;;;16.45;10.13;;;6.10;70.30;;;;;;4970866;28;114710;-82
2024/01/01 06:58:41;;;;;;;17.23;11.65;;;6.10;70.30;;;;;;4987855;28;115523;-81
2024/01/01 07:01:09;;;;;;;19.10;10.90;;;6.00;70.10;;;;;;4987705;28;114718;-82
2024/01/01 07:03:36;;;;;;;15.90;9.88;;;5.90;69.90;;;;;;4987085;28;114688;-81
2024/01/01 07:06:05;;;;;;;15.85;8.70;;;5.90;69.60;;;;;;4973282;28;114626;-81
2024/01/01 07:08:32;;;;;;;15.88;9.57;;;5.80;69.50;;;;;;4977886;28;114612;-82
2024/01/01 07:10:59;;;;;;;16.67;9.85;;;5.70;69.60;;;;;;4993033;28;114680;-82
2024/01/01 07:13:44;;;;;;;;;;;5.60;69.80;;;;;;4980750;28;114479;-82
2024/01/01 07:16:11;;;;;;;19.65;10.13;;;5.60;69.70;;;;;;5013190;28;114561;-82
2024/01/01 07:18:39;;;;;;;15.30;7.75;;;5.60;70.20;;;;;;4960060;28;115012;-82
2024/01/01 07:21:06;;;;;;;11.43;6.97;;;5.70;70.40;;;;;;4971525;28;115935;-82
2024/01/01 07:23:34;;;;;;;13.82;7.65;;;5.70;70.40;;;;;;4987500;28;114276;-82
2024/01/01 07:26:02;;;;;;;12.07;7.45;;;5.70;70.50;;;;;;4938640;28;114475;-82
2024/01/01 07:28:29;;;;;;;10.43;6.68;;;5.70;70.40;;;;;;4987588;28;115117;-82
2024/01/01 07:30:58;;;;;;;11.35;6.15;;;5.70;70.20;;;;;;4986698;28;115167;-83
2024/01/01 07:33:26;;;;;;;13.57;7.32;;;5.70;70.20;;;;;;4988435;28;114730;-81
2024/01/01 07:35:54;;;;;;;11.23;6.70;;;5.70;70.10;;;;;;4988840;28;114435;-82
2024/01/01 07:38:23;;;;;;;7.72;4.93;;;5.70;70.00;;;;;;4986451;28;115215;-82
2024/01/01 07:40:51;;;;;;;8.65;5.45;;;5.60;69.70;;;;;;4985714;28;116060;-81
2024/01/01 07:43:19;;;;;;;9.88;6.75;;;5.60;69.60;;;;;;4970788;28;114789;-82
2024/01/01 07:45:46;;;;;;;8.38;5.40;;;5.50;69.60;;;;;;4987434;28;114613;-82
2024/01/01 07:48:13;;;;;;;9.55;5.53;;;5.40;69.70;;;;;;4985967;28;116290;-82
2024/01/01 07:50:41;;;;;;;8.98;4.70;;;5.40;69.80;;;;;;4987429;28;114634;-82
2024/01/01 07:53:08;;;;;;;9.90;5.55;;;5.30;69.70;;;;;;4987899;28;114636;-82
2024/01/01 07:55:36;;;;;;;8.32;4.45;;;5.30;69.70;;;;;;4937890;28;114617;-82
2024/01/01 07:58:04;;;;;;;13.77;6.22;;;5.30;69.50;;;;;;4985737;28;115647;-81
2024/01/01 08:00:32;;;;;;;10.18;6.38;;;5.30;69.60;;;;;;4985663;28;114812;-82
2024/01/01 08:02:59;;;;;;;8.68;4.88;;;5.30;69.70;;;;;;4986503;28;114725;-82
2024/01/01 08:05:26;;;;;;;7.95;4.03;;;5.30;69.50;;;;;;4986726;28;114651;-82
2024/01/01 08:07:57;;;;;;;5.93;3.70;;;5.20;69.60;;;;;;4985598;28;115040;-81
2024/01/01 08:10:24;;;;;;;7.63;4.20;;;5.30;69.50;;;;;;4969507;28;114705;-82
2024/01/01 08:12:52;;;;;;;8.98;4.57;;;5.20;69.60;;;;;;4969877;28;114698;-82
2024/01/01 08:15:19;;;;;;;7.95;4.60;;;5.30;69.70;;;;;;4987737;28;114656;-82
2024/01/01 08:17:48;;;;;;;7.07;3.72;;;5.30;69.70;;;;;;4985501;28;115128;-82
2024/01/01 08:20:16;;;;;;;9.63;5.63;;;5.30;69.50;;;;;;4987233;28;115129;-81
2024/01/01 08:22:44;;;;;;;9.32;4.88;;;5.30;69.70;;;;;;4954254;28;114677;-82
2024/01/01 08:25:11;;;;;;;7.07;3.95;;;5.30;69.60;;;;;;4987822;28;114375;-81
2024/01/01 08:27:41;;;;;;;6.82;3.78;;;5.30;69.50;;;;;;4985884;28;116371;-81
2024/01/01 08:30:09;;;;;;;8.65;5.03;;;5.30;69.50;;;;;;4985299;28;114902;-81
2024/01/01 08:32:36;;;;;;;7.38;4.30;;;5.20;69.50;;;;;;4986200;28;114867;-81
2024/01/01 08:35:04;;;;;;;8.55;4.97;;;5.20;69.50;;;;;;4986503;28;114757;-81
2024/01/01 08:37:31;;;;;;;5.50;3.17;;;5.20;69.60;;;;;;4986509;28;115176;-82
2024/01/01 08:39:58;;;;;;;6.20;2.60;;;5.20;69.40;;;;;;4986412;28;114628;-81
2024/01/01 08:42:26;;;;;;;6.07;3.10;;;5.20;69.20;;;;;;4986216;28;114688;-81
2024/01/01 08:44:53;;;;;;;5.95;2.97;;;5.20;69.10;;;;;;4987674;28;114630;-82
2024/01/01 08:47:21;;;;;;;6.93;3.55;;;5.20;69.00;;;;;;4986342;28;115112;-81
2024/01/01 08:49:48;;;;;;;5.72;3.25;;;5.10;68.80;;;;;;4985078;28;115177;-81
2024/01/01 08:52:15;;;;;;;6.18;2.90;;;5.00;68.60;;;;;;4972420;28;114874;-81
2024/01/01 08:54:43;;;;;;;7.05;4.45;;;5.00;68.40;;;;;;4971897;28;114473;-81
2024/01/01 08:57:12;;;;;;;7.45;4.88;;;4.90;68.50;;;;;;4985172;28;115075;-81
2024/01/01 08:59:40;;;;;;;6.95;3.97;;;4.90;68.50;;;;;;4986292;28;115193;-81
2024/01/01 09:02:08;;;;;;;7.93;4.68;;;4.90;68.20;;;;;;4985954;28;114792;-81
2024/01/01 09:04:35;;;;;;;6.50;3.72;;;4.80;68.20;;;;;;4985811;28;114455;-81
2024/01/01 09:07:04;;;;;;;7.38;3.67;;;4.70;68.30;;;;;;4986334;28;115240;-81
2024/01/01 09:09:33;;;;;;;8.73;5.15;;;4.70;68.00;;;;;;4987906;28;114579;-81
2024/01/01 09:12:05;;;;;;;6.88;4.15;;;4.70;68.00;;;;;;4995234;28;113505;-80
2024/01/01 09:14:34;;;;;;;6.05;3.03;;;4.60;67.90;;;;;;4988516;28;114760;-81
2024/01/01 09:17:03;;;;;;;6.57;3.33;;;4.60;67.80;;;;;;4986049;28;114935;-80
2024/01/01 09:19:31;;;;;;;6.78;4.05;;;4.60;67.60;;;;;;4968223;28;117816;-82
2024/01/01 09:21:59;;;;;;;8.43;4.10;;;4.60;67.60;;;;;;4987390;28;114746;-81
2024/01/01 09:24:26;;;;;;;6.40;3.60;;;4.50;67.80;;;;;;4987027;28;114610;-81
2024/01/01 09:26:53;;;;;;;6.93;3.80;;;4.50;67.70;;;;;;4985413;28;115143;-82
2024/01/01 09:29:23;;;;;;;8.90;4.00;;;4.50;67.70;;;;;;4985859;28;114657;-82
2024/01/01 09:31:50;;;;;;;7.07;4.28;;;4.40;67.60;;;;;;4986961;28;115164;-82
2024/01/01 09:34:17;;;;;;;7.53;3.83;;;4.40;67.60;;;;;;4987236;28;114530;-82
2024/01/01 09:36:45;;;;;;;7.25;3.80;;;4.30;67.50;;;;;;4984504;28;115143;-81
2024/01/01 09:39:29;;;;;;;7.78;4.43;;;4.40;67.70;;;;;;4984323;28;114633;-81
2024/01/01 09:41:56;;;;;;;5.30;3.10;;;4.40;67.80;;;;;;4984932;28;114668;-83
2024/01/01 09:44:27;;;;;;;6.55;3.67;;;4.30;67.60;;;;;;4953728;28;114615;-82
2024/01/01 09:46:55;;;;;;;6.35;3.47;;;4.30;67.60;;;;;;4985457;28;114989;-80
2024/01/01 09:49:24;;;;;;;5.28;3.17;;;4.20;67.80;;;;;;4985600;28;116080;-81
2024/01/01 09:51:56;;;;;;;5.78;3.58;;;4.20;67.90;;;;;;4985239;28;114690;-82
2024/01/01 09:54:25;;;;;;;7.43;3.30;;;4.30;67.90;;;;;;4969661;28;114667;-82
2024/01/01 09:56:52;;;;;;;6.90;3.83;;;4.20;68.00;;;;;;4984194;28;115757;-82
2024/01/01 09:59:36;;;;;;;5.78;3.22;;;4.20;68.10;;;;;;4984274;28;114689;-82
2024/01/01 10:02:09;;;;;;;6.00;3.63;;;4.20;68.20;;;;;;4985065;28;114425;-81
2024/01/01 10:04:36;;;;;;;5.75;3.25;;;4.30;68.20;;;;;;4988753;28;114424;-82
2024/01/01 10:07:04;;;;;;;8.18;4.00;;;4.30;68.20;;;;;;4987563;28;115132;-81
2024/01/01 10:09:32;;;;;;;5.93;3.25;;;4.30;68.30;;;;;;4987638;28;115005;-81
2024/01/01 10:12:09;;;;;;;6.53;4.00;;;4.40;68.30;;;;;;4988661;28;114690;-83
2024/01/01 10:14:47;;;;;;;6.13;4.30;;;4.50;68.30;;;;;;4988869;28;114723;-82
2024/01/01 10:17:20;;;;;;;7.70;3.70;;;4.50;68.50;;;;;;4987294;28;114997;-82
2024/01/01 10:19:54;;;;;;;8.50;5.05;;;4.50;68.40;;;;;;4988767;28;114904;-80
2024/01/01 10:22:23;;;;;;;8.75;4.95;;;4.50;68.20;;;;;;4988413;28;115338;-82
2024/01/01 10:24:55;;;;;;;9.23;5.05;;;4.50;68.20;;;;;;4988924;28;114398;-82
2024/01/01 10:27:22;;;;;;;9.88;4.80;;;4.50;68.30;;;;;;4987288;28;116242;-81
2024/01/01 10:29:50;;;;;;;7.78;4.63;;;4.50;68.30;;;;;;4970864;28;117620;-81
2024/01/01 10:32:18;;;;;;;7.55;4.35;;;4.60;68.50;;;;;;4988099;28;114868;-80
2024/01/01 10:34:47;;;;;;;7.38;3.92;;;4.60;68.40;;;;;;4989912;28;114478;-81
2024/01/01 10:37:20;;;;;;;7.70;3.60;;;4.60;68.40;;;;;;4986957;28;116377;-81
2024/01/01 10:39:48;;;;;;;6.95;3.70;;;4.70;68.40;;;;;;4972030;28;114672;-80
2024/01/01 10:42:16;;;;;;;6.68;3.55;;;4.70;68.50;;;;;;4972218;28;114700;-82
2024/01/01 10:44:43;;;;;;;6.20;3.55;;;4.80;68.50;;;;;;4988408;28;114526;-83
2024/01/01 10:47:13;;;;;;;8.77;4.05;;;4.80;68.50;;;;;;4986682;28;115779;-82
2024/01/01 10:49:51;;;;;;;7.00;3.95;;;4.90;68.40;;;;;;4988446;28;114772;-81
2024/01/01 10:53:04;;;;;;;8.32;4.03;;;5.00;68.60;;;;;;4987778;28;114519;-81
2024/01/01 10:55:43;;;;;;;6.90;4.30;;;5.10;68.60;;;;;;4987912;28;114619;-81
2024/01/01 10:58:38;;;;;;;7.05;3.78;;;5.10;68.60;;;;;;4986403;28;115732;-80
2024/01/01 11:01:09;;;;;;;;;;;5.10;68.40;;;;;;4992224;28;114695;-81
2024/01/01 11:03:37;;;;;;;7.65;4.28;;;5.10;68.30;;;;;;4978586;28;115574;-80
2024/01/01 11:06:26;;;;;;;9.60;4.90;;;5.10;68.40;;;;;;4973198;28;114560;-81
2024/01/01 11:08:54;;;;;;;9.07;4.72;;;5.20;68.50;;;;;;4987796;28;115506;-81
2024/01/01 11:11:31;;;;;;;7.82;4.63;;;5.20;68.50;;;;;;4986628;28;114587;-82
2024/01/01 11:13:59;;;;;;;7.88;4.05;;;5.20;68.70;;;;;;4987572;28;114420;-82
2024/01/01 11:16:26;;;;;;;7.47;4.30;;;5.30;68.60;;;;;;4970510;28;114723;-81
2024/01/01 11:18:54;;;;;;;8.80;4.10;;;5.30;68.60;;;;;;4953819;28;115016;-81
2024/01/01 11:21:32;;;;;;;8.98;4.25;;;5.30;68.60;;;;;;4987544;28;115135;-81
2024/01/01 11:24:03;;;;;;;11.55;4.45;;;5.40;68.90;;;;;;4987072;28;114686;-82
2024/01/01 11:26:50;;;;;;;8.32;3.50;;;5.40;68.70;;;;;;4988050;28;114584;-82
2024/01/01 11:29:17;;;;;;;8.23;3.53;;;5.30;68.70;;;;;;4987190;28;115707;-81
2024/01/01 11:31:47;;;;;;;6.95;3.88;;;5.40;68.70;;;;;;4987057;28;114707;-81
2024/01/01 11:34:16;;;;;;;8.15;4.80;;;5.50;68.90;;;;;;4987056;28;114559;-82
2024/01/01 11:36:53;;;;;;;8.38;4.57;;;5.50;69.00;;;;;;4987320;28;114456;-81
2024/01/01 11:39:24;;;;;;;7.50;4.18;;;5.50;69.10;;;;;;4969707;28;115848;-81
2024/01/01 11:41:52;;;;;;;7.65;3.75;;;5.50;69.10;;;;;;4969703;28;117409;-82
2024/01/01 11:44:23;;;;;;;8.35;3.92;;;5.40;69.00;;;;;;4987018;28;114372;-82
2024/01/01 11:46:51;;;;;;;6.47;3.72;;;5.40;69.10;;;;;;4987007;28;114545;-82
2024/01/01 11:49:19;;;;;;;7.25;3.85;;;5.40;69.30;;;;;;4985624;28;115139;-82
2024/01/01 11:52:00;;;;;;;7.80;4.32;;;5.50;69.40;;;;;;4969458;28;114958;-82
2024/01/01 11:54:28;;;;;;;7.82;4.88;;;5.50;69.60;;;;;;4971023;28;114816;-82
2024/01/01 11:56:56;;;;;;;6.78;3.80;;;5.60;69.50;;;;;;4986770;28;114575;-82
2024/01/01 11:59:29;;;;;;;6.97;3.35;;;5.60;69.40;;;;;;4987177;28;115173;-83
2024/01/01 12:01:57;;;;;;;6.38;3.60;;;5.60;69.40;;;;;;4985334;28;115860;-82
2024/01/01 12:04:24;;;;;;;7.47;3.83;;;5.70;69.50;;;;;;4986408;28;114598;-82
2024/01/01 12:06:52;;;;;;;7.82;3.75;;;5.70;69.50;;;;;;4970321;28;114523;-81
2024/01/01 12:09:20;;;;;;;8.88;4.35;;;5.70;69.40;;;;;;4969175;28;115241;-82
2024/01/01 12:12:00;;;;;;;7.88;4.65;;;5.70;69.40;;;;;;4986752;28;114898;-82
2024/01/01 12:14:29;;;;;;;7.72;4.20;;;5.80;69.50;;;;;;4956103;28;114795;-81
2024/01/01 12:17:01;;;;;;;10.65;4.70;;;5.80;69.50;;;;;;4986539;28;114835;-81
2024/01/01 12:19:31;;;;;;;8.70;5.28;;;5.90;69.60;;;;;;4985351;28;115320;-81
2024/01/01 12:21:59;;;;;;;8.75;4.82;;;6.00;69.70;;;;;;4986825;28;114890;-82
2024/01/01 12:24:26;;;;;;;7.63;4.35;;;6.10;69.70;;;;;;4997163;28;114813;-81
2024/01/01 12:27:00;;;;;;;8.30;4.93;;;6.10;69.40;;;;;;4990005;28;114460;-82
2024/01/01 12:29:29;;;;;;;8.15;4.68;;;6.10;69.30;;;;;;4970353;28;115564;-82
2024/01/01 12:31:57;;;;;;;9.95;4.70;;;6.10;69.20;;;;;;4986926;28;115197;-81
2024/01/01 12:34:26;;;;;;;8.43;4.45;;;6.20;69.20;;;;;;4987870;28;114632;-83
2024/01/01 12:36:54;;;;;;;6.82;4.30;;;6.20;69.20;;;;;;4986653;28;114536;-81
2024/01/01 12:39:22;;;;;;;9.77;4.88;;;6.20;69.20;;;;;;4986459;28;115095;-81
2024/01/01 12:41:49;;;;;;;11.05;4.93;;;6.20;69.00;;;;;;4987055;28;115183;-81
2024/01/01 12:44:17;;;;;;;9.88;5.45;;;6.20;68.90;;;;;;4986626;28;114734;-81